Time;durP1;ratioP1;P1;durP2;ratioP2;P2;SDS_P1;SDS_P2;PMS_P1;PMS_P2;Temp;Humidity;BMP_temperature;BMP_pressure;BME280_temperature;BME280_humidity;BME280_pressure;Samples;Min_cycle;Max_cycle;Signal;HPM_P1;HPM_P2
2022/12/14 00:00:52;;;;;;;30.65;15.15;;;1.00;75.30;;;;;;5041723;28;20052;-76
2022/12/14 00:03:19;;;;;;;24.38;14.88;;;1.00;74.90;;;;;;5043125;28;20025;-78
2022/12/14 00:05:45;;;;;;;26.75;14.90;;;1.00;74.90;;;;;;5043852;28;20693;-78
2022/12/14 00:08:11;;;;;;;25.23;15.23;;;1.00;75.10;;;;;;5042558;28;20029;-77
2022/12/14 00:10:38;;;;;;;25.67;15.27;;;1.00;75.00;;;;;;5043464;28;20079;-78
2022/12/14 00:13:05;;;;;;;28.08;15.52;;;1.00;74.90;;;;;;5040771;28;20124;-77
2022/12/14 00:15:32;;;;;;;26.83;15.32;;;1.00;74.70;;;;;;5041973;28;20124;-77
2022/12/14 00:17:58;;;;;;;25.00;14.23;;;1.10;74.40;;;;;;5042314;28;20605;-78
2022/12/14 00:20:28;;;;;;;24.05;14.68;;;1.10;74.30;;;;;;5042498;28;20029;-77
2022/12/14 00:22:54;;;;;;;30.58;15.73;;;1.00;74.20;;;;;;5040409;28;20021;-78
2022/12/14 00:25:21;;;;;;;27.52;15.75;;;1.10;74.30;;;;;;5027429;28;20053;-78
2022/12/14 00:27:47;;;;;;;29.58;16.55;;;1.10;74.10;;;;;;5042809;28;20097;-80
2022/12/14 00:30:14;;;;;;;25.58;15.10;;;1.00;74.20;;;;;;5038108;28;20483;-77
2022/12/14 00:32:40;;;;;;;26.02;14.68;;;1.10;74.20;;;;;;5041852;28;20032;-77
2022/12/14 00:35:08;;;;;;;23.13;13.85;;;1.10;74.20;;;;;;5044156;28;20025;-76
2022/12/14 00:37:34;;;;;;;24.50;14.45;;;1.10;74.10;;;;;;5025988;28;20132;-75
2022/12/14 00:40:00;;;;;;;23.95;14.85;;;1.10;74.20;;;;;;5043241;28;20036;-77
2022/12/14 00:42:25;;;;;;;28.75;15.05;;;1.10;74.00;;;;;;5042140;28;20025;-78
2022/12/14 00:44:51;;;;;;;28.98;15.98;;;1.10;73.80;;;;;;5043395;28;20036;-78
2022/12/14 00:47:16;;;;;;;27.33;15.73;;;1.10;73.80;;;;;;5043118;28;20028;-77
2022/12/14 00:49:42;;;;;;;27.38;15.60;;;1.10;73.70;;;;;;5040764;28;20067;-78
2022/12/14 00:52:08;;;;;;;26.23;15.07;;;1.10;73.60;;;;;;5052317;28;20024;-78
2022/12/14 00:54:33;;;;;;;24.35;15.23;;;1.10;73.90;;;;;;5037598;28;20079;-78
2022/12/14 00:56:59;;;;;;;26.60;14.13;;;1.00;74.00;;;;;;5042120;28;20029;-77
2022/12/14 00:59:25;;;;;;;25.52;14.60;;;1.10;74.00;;;;;;5041917;28;20036;-78
2022/12/14 01:01:50;;;;;;;29.13;15.88;;;1.10;74.10;;;;;;5049397;28;20029;-77
2022/12/14 01:04:16;;;;;;;24.77;14.57;;;1.00;74.20;;;;;;5043223;28;20131;-79
2022/12/14 01:06:43;;;;;;;26.77;14.48;;;1.00;74.90;;;;;;5042779;28;20060;-78
2022/12/14 01:09:09;;;;;;;25.23;13.90;;;0.90;74.20;;;;;;5043788;28;20020;-77
2022/12/14 01:11:35;;;;;;;25.38;14.15;;;0.90;73.80;;;;;;5046044;28;20059;-78
2022/12/14 01:14:01;;;;;;;25.63;14.25;;;0.90;73.90;;;;;;5044766;28;20128;-78
2022/12/14 01:16:26;;;;;;;24.80;15.73;;;1.00;73.60;;;;;;5045529;28;20111;-78
2022/12/14 01:18:52;;;;;;;26.92;14.30;;;1.00;73.40;;;;;;5046854;28;20028;-78
2022/12/14 01:21:23;;;;;;;23.83;15.13;;;1.00;73.40;;;;;;5046268;28;20033;-78
2022/12/14 01:23:56;;;;;;;24.45;13.05;;;1.00;74.00;;;;;;5045996;28;20072;-77
2022/12/14 01:26:23;;;;;;;24.10;13.43;;;0.90;73.90;;;;;;5041785;28;20029;-78
2022/12/14 01:28:51;;;;;;;21.98;13.20;;;0.90;74.20;;;;;;5047205;28;20036;-78
2022/12/14 01:31:20;;;;;;;21.13;12.65;;;0.80;73.80;;;;;;5050514;28;20013;-78
2022/12/14 01:33:46;;;;;;;24.73;14.77;;;0.80;73.90;;;;;;5044906;28;20040;-78
2022/12/14 01:36:17;;;;;;;23.35;13.02;;;0.80;73.20;;;;;;5044381;28;20104;-77
2022/12/14 01:38:43;;;;;;;23.77;14.40;;;0.90;73.60;;;;;;5047733;28;20021;-78
2022/12/14 01:41:22;;;;;;;24.92;14.48;;;0.90;73.90;;;;;;5044898;28;21771;-77
2022/12/14 01:43:59;;;;;;;25.70;14.50;;;0.90;73.60;;;;;;5045675;28;20503;-77
2022/12/14 01:46:25;;;;;;;21.50;12.70;;;0.90;73.40;;;;;;5044029;28;20105;-77
2022/12/14 01:48:54;;;;;;;22.90;13.52;;;0.90;74.00;;;;;;5027976;28;20201;-77
2022/12/14 01:51:22;;;;;;;28.63;14.37;;;0.80;73.80;;;;;;5045079;28;20025;-78
2022/12/14 01:53:48;;;;;;;23.27;12.65;;;0.80;73.50;;;;;;5047533;28;20279;-77
2022/12/14 01:56:15;;;;;;;19.17;10.88;;;0.80;73.30;;;;;;5045263;28;20107;-77
2022/12/14 01:58:41;;;;;;;23.10;12.57;;;0.80;74.00;;;;;;5046711;28;20045;-78
2022/12/14 02:01:07;;;;;;;22.55;12.77;;;0.80;73.60;;;;;;5050193;28;20135;-77
2022/12/14 02:03:40;;;;;;;20.17;12.05;;;0.80;73.10;;;;;;5047217;28;20028;-78
2022/12/14 02:06:15;;;;;;;18.27;10.88;;;0.80;72.50;;;;;;5047636;28;20685;-78
2022/12/14 02:08:44;;;;;;;20.00;11.55;;;0.80;72.50;;;;;;5046061;28;20445;-78
2022/12/14 02:11:10;;;;;;;20.63;11.20;;;0.80;72.10;;;;;;5045493;28;20434;-78
2022/12/14 02:13:39;;;;;;;22.00;11.45;;;0.80;71.80;;;;;;5045028;28;20041;-78
2022/12/14 02:16:06;;;;;;;21.40;10.90;;;0.80;71.40;;;;;;5024834;28;20813;-77
2022/12/14 02:18:32;;;;;;;19.38;11.07;;;0.80;71.30;;;;;;5042515;28;20048;-77
2022/12/14 02:21:05;;;;;;;19.42;11.35;;;0.80;71.00;;;;;;5047755;28;20029;-75
2022/12/14 02:24:10;;;;;;;25.83;11.07;;;0.90;71.00;;;;;;5023605;28;20029;-78
2022/12/14 02:26:35;;;;;;;21.25;11.23;;;0.90;71.00;;;;;;5025978;28;20043;-77
2022/12/14 02:29:19;;;;;;;18.80;9.98;;;0.90;71.40;;;;;;5045924;28;20108;-77
2022/12/14 02:31:57;;;;;;;19.83;10.70;;;0.90;71.80;;;;;;5025977;28;20108;-78
2022/12/14 02:34:28;;;;;;;19.27;10.98;;;0.90;71.20;;;;;;5024834;28;20044;-78
2022/12/14 02:37:39;;;;;;;22.40;12.38;;;0.80;71.00;;;;;;5043718;28;20044;-77
2022/12/14 02:40:11;;;;;;;21.50;11.23;;;0.80;71.20;;;;;;4996226;28;20046;-79
2022/12/14 02:42:47;;;;;;;17.52;10.27;;;0.80;71.10;;;;;;5039603;28;20542;-77
2022/12/14 02:45:39;;;;;;;18.63;10.63;;;0.80;71.30;;;;;;5043963;28;20434;-78
2022/12/14 02:48:28;;;;;;;18.65;9.63;;;0.70;72.20;;;;;;5044437;28;20216;-77
2022/12/14 02:51:24;;;;;;;20.00;10.20;;;0.70;71.10;;;;;;5026508;28;20025;-79
2022/12/14 02:54:01;;;;;;;18.13;10.48;;;0.70;74.00;;;;;;5038718;28;20037;-77
2022/12/14 02:56:41;;;;;;;17.90;9.73;;;0.80;72.80;;;;;;5045159;28;20025;-78
2022/12/14 02:59:08;;;;;;;18.13;10.07;;;0.80;72.00;;;;;;5024585;28;20122;-78
2022/12/14 03:01:37;;;;;;;19.23;11.48;;;0.80;71.00;;;;;;5030627;28;20032;-78
2022/12/14 03:04:03;;;;;;;20.98;10.95;;;0.80;70.90;;;;;;5045026;28;20506;-78
2022/12/14 03:06:29;;;;;;;18.10;9.35;;;0.80;70.30;;;;;;5048020;28;20025;-77
2022/12/14 03:09:24;;;;;;;18.17;10.43;;;0.80;70.80;;;;;;5044090;28;20049;-79
2022/12/14 03:11:55;;;;;;;15.25;9.38;;;0.80;70.00;;;;;;5043974;28;20059;-78
2022/12/14 03:14:30;;;;;;;19.38;10.57;;;0.80;69.70;;;;;;5041137;28;20083;-77
2022/12/14 03:17:02;;;;;;;18.45;10.75;;;0.80;70.20;;;;;;5041911;28;20743;-79
2022/12/14 03:19:39;;;;;;;18.83;10.02;;;0.80;71.40;;;;;;5025136;28;20043;-79
2022/12/14 03:22:17;;;;;;;19.67;10.13;;;0.80;69.70;;;;;;5042734;28;20463;-79
2022/12/14 03:24:50;;;;;;;20.58;9.45;;;0.80;70.80;;;;;;5041241;28;20028;-79
2022/12/14 03:27:28;;;;;;;18.70;9.23;;;0.80;69.80;;;;;;5044469;28;20101;-78
2022/12/14 03:30:12;;;;;;;20.55;10.88;;;0.80;69.70;;;;;;5039740;28;20033;-79
2022/12/14 03:32:45;;;;;;;22.00;10.70;;;0.80;69.20;;;;;;5026963;28;20028;-78
2022/12/14 03:35:45;;;;;;;19.98;10.57;;;0.80;68.80;;;;;;5041223;28;20032;-77
2022/12/14 03:38:14;;;;;;;;;;;0.80;68.60;;;;;;5044282;28;20029;-78
2022/12/14 03:41:00;;;;;;;17.57;9.43;;;0.80;71.10;;;;;;5041942;28;19949;-79
2022/12/14 03:43:44;;;;;;;19.45;9.40;;;0.70;69.40;;;;;;5043361;28;20025;-78
2022/12/14 03:46:20;;;;;;;20.33;10.73;;;0.70;69.30;;;;;;5045227;28;20434;-79
2022/12/14 03:48:56;;;;;;;18.92;9.82;;;0.70;69.50;;;;;;5045945;28;20040;-76
2022/12/14 03:51:53;;;;;;;19.08;10.75;;;0.70;70.00;;;;;;5042500;28;20036;-77
2022/12/14 03:54:36;;;;;;;20.00;10.93;;;0.60;69.60;;;;;;5043235;28;20037;-78
2022/12/14 03:57:13;;;;;;;19.92;10.43;;;0.60;70.00;;;;;;5039624;28;20036;-78
2022/12/14 04:00:00;;;;;;;19.33;8.57;;;0.70;69.50;;;;;;5043621;28;20037;-80
2022/12/14 04:02:33;;;;;;;18.67;9.65;;;0.60;70.10;;;;;;5041675;28;20028;-78
2022/12/14 04:05:38;;;;;;;16.83;9.45;;;0.60;69.70;;;;;;5040096;28;20301;-78
2022/12/14 04:08:18;;;;;;;20.08;10.73;;;0.60;69.20;;;;;;5001978;28;20037;-78
2022/12/14 04:19:23;;;;;;;16.90;9.15;;;0.60;68.80;;;;;;5042820;28;20187;-78
2022/12/14 04:22:03;;;;;;;20.05;9.00;;;0.60;68.40;;;;;;5040842;28;20025;-78
2022/12/14 04:27:28;;;;;;;16.30;9.25;;;0.60;68.30;;;;;;5043129;28;20043;-78
2022/12/14 04:29:58;;;;;;;16.42;9.20;;;0.50;68.10;;;;;;5040923;28;20022;-78
2022/12/14 04:32:41;;;;;;;19.63;10.50;;;0.50;68.80;;;;;;5040771;28;20021;-78
2022/12/14 04:35:27;;;;;;;17.05;9.15;;;0.50;68.30;;;;;;5026354;28;20039;-78
2022/12/14 04:38:14;;;;;;;18.67;9.73;;;0.50;68.40;;;;;;5044571;28;20143;-79
2022/12/14 04:40:48;;;;;;;17.33;9.25;;;0.50;68.30;;;;;;5054747;28;20040;-78
2022/12/14 04:43:18;;;;;;;16.58;9.32;;;0.50;68.40;;;;;;5057972;28;20049;-76
2022/12/14 04:45:46;;;;;;;;;;;0.40;68.40;;;;;;5052972;28;20035;-76
2022/12/14 04:48:21;;;;;;;18.92;9.00;;;0.50;69.20;;;;;;5047888;28;19913;-79
2022/12/14 04:50:54;;;;;;;16.52;9.38;;;0.40;68.70;;;;;;5048766;28;20044;-78
2022/12/14 04:53:25;;;;;;;17.65;9.50;;;0.40;68.70;;;;;;5028843;28;20029;-78
2022/12/14 04:56:03;;;;;;;16.52;8.73;;;0.50;68.60;;;;;;5047295;28;20067;-79
2022/12/14 04:58:31;;;;;;;20.90;9.70;;;0.50;68.70;;;;;;5046534;28;20156;-77
2022/12/14 05:01:03;;;;;;;17.40;8.93;;;0.50;68.50;;;;;;5040556;28;20118;-78
2022/12/14 05:03:33;;;;;;;17.23;9.43;;;0.50;68.40;;;;;;5041690;28;20025;-78
2022/12/14 05:06:18;;;;;;;20.30;9.77;;;0.50;68.50;;;;;;5044914;28;20028;-78
2022/12/14 05:09:01;;;;;;;18.38;9.65;;;0.50;68.60;;;;;;5042326;28;20033;-76
2022/12/14 05:11:45;;;;;;;17.80;8.65;;;0.50;68.40;;;;;;5044834;28;20025;-77
2022/12/14 05:14:22;;;;;;;17.77;8.70;;;0.50;68.20;;;;;;5044583;28;20083;-77
2022/12/14 05:16:48;;;;;;;16.35;9.02;;;0.50;68.20;;;;;;5038994;28;20027;-76
2022/12/14 05:19:14;;;;;;;15.77;9.00;;;0.50;68.20;;;;;;5043419;28;20088;-77
2022/12/14 05:21:45;;;;;;;17.08;9.35;;;0.50;68.20;;;;;;5047450;28;20490;-78
2022/12/14 05:24:12;;;;;;;18.10;9.07;;;0.50;68.20;;;;;;5042452;28;20028;-77
2022/12/14 05:26:37;;;;;;;16.73;8.45;;;0.50;68.30;;;;;;5029996;28;20044;-77
2022/12/14 05:29:03;;;;;;;17.20;9.13;;;0.50;68.30;;;;;;5047597;28;20036;-76
2022/12/14 05:31:29;;;;;;;19.02;9.20;;;0.50;68.20;;;;;;5048699;28;20057;-78
2022/12/14 05:33:55;;;;;;;16.75;8.63;;;0.50;68.10;;;;;;5045181;28;20031;-78
2022/12/14 05:36:20;;;;;;;19.23;9.18;;;0.50;68.20;;;;;;5028423;28;20799;-77
2022/12/14 05:38:46;;;;;;;13.98;7.55;;;0.50;68.10;;;;;;5042173;28;20072;-78
2022/12/14 05:41:12;;;;;;;16.15;8.13;;;0.50;68.10;;;;;;5048801;28;20029;-77
2022/12/14 05:43:39;;;;;;;15.82;8.43;;;0.60;68.60;;;;;;5048791;28;20029;-78
2022/12/14 05:46:04;;;;;;;15.45;8.77;;;0.60;68.20;;;;;;5044248;28;20029;-76
2022/12/14 05:48:32;;;;;;;15.95;7.95;;;0.60;67.80;;;;;;5045181;28;20027;-78
2022/12/14 05:51:08;;;;;;;16.23;8.25;;;0.60;67.80;;;;;;5045691;28;20090;-78
2022/12/14 05:53:35;;;;;;;17.08;8.32;;;0.60;67.60;;;;;;5027521;28;20021;-78
2022/12/14 05:56:00;;;;;;;14.95;8.30;;;0.60;67.40;;;;;;5043062;28;20025;-77
2022/12/14 05:58:26;;;;;;;17.17;8.50;;;0.60;67.50;;;;;;5042817;28;20036;-78
2022/12/14 06:00:52;;;;;;;15.77;8.48;;;0.60;68.20;;;;;;5026206;28;20681;-77
2022/12/14 06:03:19;;;;;;;16.25;8.93;;;0.60;67.50;;;;;;5013942;28;20037;-78
2022/12/14 06:05:44;;;;;;;19.42;8.65;;;0.60;67.50;;;;;;5029209;28;20028;-78
2022/12/14 06:08:10;;;;;;;16.48;7.88;;;0.60;67.40;;;;;;5047867;28;20479;-77
2022/12/14 06:10:36;;;;;;;15.60;7.95;;;0.60;67.10;;;;;;5043018;28;20028;-77
2022/12/14 06:13:01;;;;;;;16.02;7.60;;;0.60;69.10;;;;;;5043184;28;20060;-77
2022/12/14 06:15:27;;;;;;;15.23;7.97;;;0.60;68.70;;;;;;5040423;28;20036;-78
2022/12/14 06:17:53;;;;;;;16.58;8.05;;;0.50;67.60;;;;;;5045736;28;20029;-78
2022/12/14 06:20:19;;;;;;;15.63;8.02;;;0.60;67.20;;;;;;5042674;28;20032;-77
2022/12/14 06:22:45;;;;;;;13.82;7.85;;;0.50;66.90;;;;;;5046119;28;20394;-78
2022/12/14 06:25:11;;;;;;;14.48;8.50;;;0.60;66.90;;;;;;5042337;28;20030;-77
2022/12/14 06:27:36;;;;;;;20.58;9.02;;;0.50;66.80;;;;;;5045806;28;20025;-79
2022/12/14 06:30:03;;;;;;;14.02;7.45;;;0.50;67.00;;;;;;5025166;28;20032;-78
2022/12/14 06:32:29;;;;;;;17.00;8.48;;;0.50;67.30;;;;;;5045036;28;20517;-78
2022/12/14 06:34:54;;;;;;;14.35;7.40;;;0.60;67.30;;;;;;5026638;28;20060;-79
2022/12/14 06:37:20;;;;;;;17.92;7.90;;;0.60;67.10;;;;;;5046991;28;20055;-78
2022/12/14 06:39:46;;;;;;;16.40;7.93;;;0.60;66.80;;;;;;5045379;28;20041;-80
2022/12/14 06:42:11;;;;;;;13.70;6.65;;;0.60;67.30;;;;;;5043582;28;20029;-78
2022/12/14 06:44:37;;;;;;;16.25;8.93;;;0.50;66.50;;;;;;5045385;28;20075;-79
2022/12/14 06:47:04;;;;;;;15.88;8.10;;;0.50;66.40;;;;;;5043155;28;20025;-78
2022/12/14 06:49:29;;;;;;;18.83;8.05;;;0.50;66.80;;;;;;5045864;28;20494;-77
2022/12/14 06:51:55;;;;;;;14.02;8.23;;;0.50;66.30;;;;;;5043359;28;20028;-80
2022/12/14 06:54:22;;;;;;;17.77;9.00;;;0.50;66.20;;;;;;5043095;28;20146;-78
2022/12/14 06:56:47;;;;;;;14.75;7.47;;;0.50;66.20;;;;;;5043094;28;20056;-77
2022/12/14 06:59:14;;;;;;;16.73;8.05;;;0.50;66.30;;;;;;5027516;28;20124;-79
2022/12/14 07:01:41;;;;;;;12.80;7.07;;;0.50;66.20;;;;;;5041962;28;20037;-78
2022/12/14 07:04:07;;;;;;;15.73;7.82;;;0.50;66.10;;;;;;5027229;28;20568;-77
2022/12/14 07:06:37;;;;;;;16.23;7.68;;;0.50;66.00;;;;;;5043299;28;20055;-79
2022/12/14 07:09:04;;;;;;;13.63;6.50;;;0.50;66.50;;;;;;5042611;28;20060;-79
2022/12/14 07:11:30;;;;;;;13.75;7.88;;;0.50;66.30;;;;;;5041500;28;20276;-78
2022/12/14 07:13:56;;;;;;;15.85;7.15;;;0.50;66.30;;;;;;5045135;28;20041;-78
2022/12/14 07:16:26;;;;;;;17.48;9.18;;;0.50;67.30;;;;;;5047242;28;20048;-78
2022/12/14 07:18:53;;;;;;;15.35;8.23;;;0.50;66.80;;;;;;5058590;28;20049;-77
2022/12/14 07:21:21;;;;;;;14.00;7.10;;;0.50;66.80;;;;;;5052656;28;20036;-78
2022/12/14 07:23:48;;;;;;;15.77;7.20;;;0.50;66.90;;;;;;5027285;28;20642;-79
2022/12/14 07:26:17;;;;;;;16.58;9.00;;;0.50;66.90;;;;;;5042520;28;20021;-79
2022/12/14 07:28:45;;;;;;;24.40;9.43;;;0.40;67.20;;;;;;5026608;28;20025;-78
2022/12/14 07:31:29;;;;;;;19.85;10.70;;;0.40;67.80;;;;;;5046548;28;20025;-76
2022/12/14 07:33:57;;;;;;;19.52;10.35;;;0.30;68.10;;;;;;5038774;28;20063;-78
2022/12/14 07:36:24;;;;;;;18.75;9.95;;;0.20;68.30;;;;;;5048720;28;20025;-78
2022/12/14 07:38:50;;;;;;;24.20;10.63;;;0.10;68.50;;;;;;5040215;28;20103;-78
2022/12/14 07:41:21;;;;;;;18.98;9.35;;;0.10;68.90;;;;;;5023862;28;20539;-79
2022/12/14 07:43:47;;;;;;;19.85;9.70;;;0.00;69.00;;;;;;5043033;28;20117;-79
2022/12/14 07:46:15;;;;;;;18.25;9.57;;;0.00;69.20;;;;;;5043506;28;20052;-77
2022/12/14 07:48:53;;;;;;;16.65;9.48;;;0.00;69.20;;;;;;5026866;28;20037;-79
2022/12/14 07:51:22;;;;;;;20.85;9.80;;;0.00;69.10;;;;;;5045619;28;20083;-80
2022/12/14 07:53:48;;;;;;;21.02;10.60;;;0.00;69.00;;;;;;5043942;28;20025;-78
2022/12/14 07:56:23;;;;;;;23.13;11.05;;;0.00;69.00;;;;;;5041854;28;20173;-78
2022/12/14 07:58:49;;;;;;;20.83;9.20;;;-0.10;69.20;;;;;;5040676;28;20040;-79
2022/12/14 08:01:24;;;;;;;15.20;8.18;;;-0.10;69.30;;;;;;5045792;28;20033;-79
2022/12/14 08:03:55;;;;;;;18.05;9.60;;;-0.10;71.30;;;;;;5041803;28;20112;-80
2022/12/14 08:06:23;;;;;;;17.75;9.45;;;-0.10;71.10;;;;;;5025207;28;20044;-79
2022/12/14 08:08:49;;;;;;;19.80;9.07;;;-0.10;70.00;;;;;;5039646;28;20024;-78
2022/12/14 08:11:16;;;;;;;19.92;10.52;;;-0.10;69.60;;;;;;5028164;28;20029;-78
2022/12/14 08:13:42;;;;;;;19.40;10.40;;;-0.10;69.70;;;;;;5041217;28;20052;-78
2022/12/14 08:16:13;;;;;;;25.67;10.32;;;-0.10;69.80;;;;;;5043887;28;20029;-80
2022/12/14 08:18:42;;;;;;;22.67;10.38;;;-0.10;69.90;;;;;;5038997;28;20744;-76
2022/12/14 08:21:09;;;;;;;19.52;10.70;;;-0.10;70.20;;;;;;5042981;28;20033;-78
2022/12/14 08:23:35;;;;;;;21.42;9.85;;;-0.20;70.50;;;;;;5044775;28;20013;-78
2022/12/14 08:26:05;;;;;;;22.73;11.57;;;-0.20;70.70;;;;;;5041011;28;20029;-78
2022/12/14 08:28:33;;;;;;;19.23;10.45;;;-0.20;70.50;;;;;;5044508;28;20116;-79
2022/12/14 08:31:07;;;;;;;24.52;12.52;;;-0.20;70.60;;;;;;5040625;28;20181;-78
2022/12/14 08:33:34;;;;;;;25.27;12.32;;;-0.20;70.40;;;;;;5049157;28;20029;-79
2022/12/14 08:36:11;;;;;;;23.38;11.77;;;-0.30;70.70;;;;;;5045576;28;20047;-79
2022/12/14 08:38:38;;;;;;;21.75;11.90;;;-0.30;70.60;;;;;;5048304;28;20154;-78
2022/12/14 08:41:11;;;;;;;23.88;13.85;;;-0.30;70.70;;;;;;5041538;28;20038;-79
2022/12/14 08:43:41;;;;;;;23.85;12.65;;;-0.30;70.90;;;;;;5049104;28;20116;-78
2022/12/14 08:46:08;;;;;;;25.15;13.02;;;-0.30;70.90;;;;;;5029153;28;20533;-78
2022/12/14 08:48:34;;;;;;;23.35;13.05;;;-0.20;71.20;;;;;;5049331;28;20129;-79
2022/12/14 08:51:07;;;;;;;22.00;11.68;;;-0.20;71.20;;;;;;5047756;28;20096;-78
2022/12/14 08:53:34;;;;;;;23.50;11.50;;;-0.20;71.00;;;;;;5049564;28;20029;-77
2022/12/14 08:56:11;;;;;;;26.42;12.52;;;0.00;71.70;;;;;;5038803;28;20017;-78
2022/12/14 08:58:41;;;;;;;24.92;12.85;;;0.80;70.80;;;;;;5038086;28;20437;-78
2022/12/14 09:01:13;;;;;;;21.33;13.35;;;2.30;65.80;;;;;;5045606;28;20029;-78
2022/12/14 09:03:41;;;;;;;23.40;12.73;;;4.00;60.90;;;;;;5012041;28;20017;-78
2022/12/14 09:06:08;;;;;;;25.60;12.55;;;5.40;56.30;;;;;;5046169;28;20033;-78
2022/12/14 09:08:34;;;;;;;20.73;11.80;;;6.50;52.80;;;;;;5031623;28;20033;-76
2022/12/14 09:11:01;;;;;;;20.25;11.60;;;7.40;50.80;;;;;;5042902;28;20056;-79
2022/12/14 09:13:27;;;;;;;20.77;13.02;;;8.00;48.30;;;;;;5046606;28;20052;-77
2022/12/14 09:16:02;;;;;;;23.75;14.15;;;8.50;47.20;;;;;;5046754;28;20105;-78
2022/12/14 09:18:29;;;;;;;19.00;12.90;;;8.90;45.90;;;;;;5038749;28;20029;-80
2022/12/14 09:20:55;;;;;;;23.45;13.63;;;9.20;45.20;;;;;;5025580;28;20044;-73
2022/12/14 09:23:22;;;;;;;23.38;13.25;;;9.40;44.60;;;;;;5043374;28;20049;-77
2022/12/14 09:26:10;;;;;;;21.63;13.13;;;9.60;43.90;;;;;;5051107;28;20227;-76
2022/12/14 09:28:37;;;;;;;19.23;12.50;;;9.90;43.40;;;;;;5040082;28;20025;-76
2022/12/14 09:31:07;;;;;;;19.58;13.32;;;10.10;43.10;;;;;;5043240;28;20018;-76
2022/12/14 09:33:33;;;;;;;18.63;12.50;;;10.50;43.00;;;;;;5053959;28;20017;-75
2022/12/14 09:36:04;;;;;;;18.90;12.07;;;10.70;41.70;;;;;;5049328;28;20811;-77
2022/12/14 09:38:31;;;;;;;18.35;12.40;;;10.90;41.20;;;;;;5052825;28;20032;-76
2022/12/14 09:41:13;;;;;;;21.83;13.23;;;11.00;40.50;;;;;;5051032;28;20017;-75
2022/12/14 09:43:50;;;;;;;17.92;11.88;;;11.10;40.10;;;;;;5050485;28;20082;-73
2022/12/14 09:46:16;;;;;;;19.20;11.65;;;11.10;40.20;;;;;;5049488;28;20043;-74
2022/12/14 09:48:43;;;;;;;23.33;12.85;;;11.20;39.60;;;;;;5044545;28;20374;-74
2022/12/14 09:51:15;;;;;;;19.17;11.77;;;11.30;39.70;;;;;;5050996;28;20025;-75
2022/12/14 09:53:43;;;;;;;18.67;11.20;;;11.50;39.50;;;;;;5017609;28;20758;-74
2022/12/14 09:56:19;;;;;;;17.63;12.48;;;11.60;39.40;;;;;;5055694;28;20035;-74
2022/12/14 09:58:53;;;;;;;17.50;11.90;;;11.70;39.00;;;;;;5052581;28;20040;-74
2022/12/14 10:01:21;;;;;;;18.88;11.80;;;11.80;39.40;;;;;;5053841;28;20105;-75
2022/12/14 10:04:11;;;;;;;17.95;11.10;;;11.80;38.60;;;;;;5041651;28;20044;-76
2022/12/14 10:06:40;;;;;;;17.23;11.48;;;11.80;39.00;;;;;;5033661;28;20055;-76
2022/12/14 10:09:12;;;;;;;18.58;12.75;;;11.90;38.30;;;;;;5040364;28;20021;-76
2022/12/14 10:11:57;;;;;;;19.65;12.52;;;12.10;38.60;;;;;;5053319;28;20021;-75
2022/12/14 10:14:37;;;;;;;17.38;12.05;;;12.20;38.20;;;;;;5042668;28;20045;-75
2022/12/14 10:17:14;;;;;;;17.30;11.75;;;12.30;37.80;;;;;;5033372;28;20158;-75
2022/12/14 10:19:53;;;;;;;20.23;11.75;;;12.40;37.70;;;;;;5048640;28;20041;-75
2022/12/14 10:22:24;;;;;;;16.33;11.85;;;12.60;37.80;;;;;;5052706;28;20057;-75
2022/12/14 10:25:20;;;;;;;16.77;11.15;;;12.70;37.80;;;;;;5032786;28;20010;-77
2022/12/14 10:28:12;;;;;;;16.92;11.43;;;12.80;37.60;;;;;;5038182;28;20485;-74
2022/12/14 10:30:40;;;;;;;16.25;11.43;;;13.00;36.60;;;;;;5032098;28;20040;-76
2022/12/14 10:33:26;;;;;;;17.15;11.25;;;13.20;36.40;;;;;;5046741;28;20045;-75
2022/12/14 10:36:04;;;;;;;18.63;12.20;;;13.30;36.30;;;;;;5040144;28;20029;-75
2022/12/14 10:39:06;;;;;;;17.90;11.52;;;13.30;35.70;;;;;;5036011;28;20022;-76
2022/12/14 10:41:43;;;;;;;15.10;10.23;;;13.40;35.70;;;;;;5054342;28;20047;-75
2022/12/14 10:44:28;;;;;;;15.82;10.40;;;13.50;35.40;;;;;;5040551;28;20013;-75
2022/12/14 10:47:33;;;;;;;16.42;10.82;;;13.50;35.40;;;;;;5051047;28;20039;-75
2022/12/14 10:50:14;;;;;;;16.70;9.57;;;13.50;35.10;;;;;;5038687;28;20037;-76
2022/12/14 10:52:42;;;;;;;15.38;9.73;;;13.60;35.40;;;;;;5049568;28;20028;-75
2022/12/14 10:55:16;;;;;;;18.08;11.07;;;13.70;35.60;;;;;;5049742;28;20071;-76
2022/12/14 10:57:41;;;;;;;18.30;11.32;;;13.80;35.50;;;;;;5019885;28;20029;-76
2022/12/14 11:00:16;;;;;;;20.60;12.10;;;14.00;35.30;;;;;;5033269;28;20040;-75
2022/12/14 11:02:46;;;;;;;18.48;11.88;;;14.10;35.40;;;;;;5045455;28;20036;-76
2022/12/14 11:05:41;;;;;;;17.63;12.27;;;14.10;34.90;;;;;;5038689;28;20021;-75
2022/12/14 11:08:08;;;;;;;17.45;11.18;;;14.00;35.00;;;;;;5036830;28;20032;-76
2022/12/14 11:10:35;;;;;;;16.65;10.95;;;14.10;35.10;;;;;;5037238;28;20040;-77
2022/12/14 11:13:20;;;;;;;16.33;11.07;;;14.20;35.10;;;;;;5024699;28;20037;-74
2022/12/14 11:15:51;;;;;;;19.20;12.10;;;14.20;35.00;;;;;;5022594;28;20112;-76
2022/12/14 11:18:16;;;;;;;18.90;11.82;;;14.30;35.10;;;;;;5038359;28;20108;-75
2022/12/14 11:20:56;;;;;;;14.50;10.38;;;14.20;34.80;;;;;;5044445;28;20113;-75
2022/12/14 11:23:50;;;;;;;18.27;12.13;;;14.20;35.00;;;;;;5037275;28;20083;-76
2022/12/14 11:26:25;;;;;;;21.52;11.75;;;14.20;35.70;;;;;;5047897;28;20029;-74
2022/12/14 11:28:57;;;;;;;20.13;11.85;;;14.20;35.10;;;;;;5035712;28;20558;-77
2022/12/14 11:31:27;;;;;;;18.95;12.07;;;14.40;35.30;;;;;;5034912;28;20037;-76
2022/12/14 11:33:58;;;;;;;15.23;10.00;;;14.50;34.80;;;;;;5043456;28;20029;-75
2022/12/14 11:36:40;;;;;;;18.52;11.18;;;14.60;35.00;;;;;;5039347;28;21367;-75
2022/12/14 11:39:12;;;;;;;16.15;10.85;;;14.60;34.70;;;;;;5048704;28;20029;-75
2022/12/14 11:42:01;;;;;;;19.35;12.18;;;14.60;34.60;;;;;;5037056;28;20808;-76
2022/12/14 11:44:37;;;;;;;15.10;9.50;;;14.30;35.30;;;;;;5044600;28;20098;-75
2022/12/14 11:47:14;;;;;;;13.95;8.52;;;14.10;36.80;;;;;;5032245;28;20025;-75
2022/12/14 11:49:40;;;;;;;14.43;10.35;;;14.00;36.80;;;;;;5046250;28;20043;-75
2022/12/14 11:52:12;;;;;;;14.70;10.43;;;14.00;35.50;;;;;;5043881;28;20577;-76
2022/12/14 11:54:41;;;;;;;14.65;9.18;;;14.20;35.50;;;;;;5035454;28;20029;-78
2022/12/14 11:57:13;;;;;;;15.40;9.48;;;14.20;35.50;;;;;;5044421;28;20032;-75
2022/12/14 11:59:49;;;;;;;18.60;12.00;;;14.10;35.40;;;;;;5040118;28;20037;-75
2022/12/14 12:02:34;;;;;;;19.25;12.95;;;14.20;35.40;;;;;;5037231;28;20025;-76
2022/12/14 12:05:13;;;;;;;19.17;12.90;;;14.30;35.40;;;;;;5048794;28;20033;-74
2022/12/14 12:07:52;;;;;;;16.02;11.25;;;14.30;35.20;;;;;;5037974;28;20021;-75
2022/12/14 12:10:23;;;;;;;20.52;12.02;;;14.30;35.90;;;;;;5037634;28;20032;-75
2022/12/14 12:13:04;;;;;;;18.42;12.85;;;14.50;35.40;;;;;;5036524;28;20402;-75
2022/12/14 12:15:40;;;;;;;16.13;9.05;;;14.70;34.80;;;;;;5020367;28;20068;-76
2022/12/14 12:18:20;;;;;;;13.52;8.10;;;14.80;34.50;;;;;;5021280;28;20036;-75
2022/12/14 12:20:55;;;;;;;;;;;14.80;32.30;;;;;;5041730;28;20450;-75
2022/12/14 12:23:28;;;;;;;14.30;9.70;;;14.60;32.20;;;;;;5041949;28;20232;-75
2022/12/14 12:25:56;;;;;;;15.90;10.25;;;14.50;32.70;;;;;;5023521;28;20063;-76
2022/12/14 12:28:30;;;;;;;13.38;8.38;;;14.40;32.80;;;;;;5037938;28;20024;-76
2022/12/14 12:31:02;;;;;;;12.82;8.30;;;14.40;37.70;;;;;;5039041;28;20028;-76
2022/12/14 12:33:40;;;;;;;14.95;9.10;;;14.40;33.80;;;;;;5020124;28;20068;-76
2022/12/14 12:36:07;;;;;;;12.88;7.65;;;14.50;33.30;;;;;;5021407;28;20021;-75
2022/12/14 12:38:43;;;;;;;10.93;7.10;;;14.70;33.70;;;;;;5036805;28;20053;-77
2022/12/14 12:41:31;;;;;;;13.35;8.27;;;15.00;35.40;;;;;;5038683;28;20026;-76
2022/12/14 12:44:09;;;;;;;15.30;9.35;;;15.10;34.60;;;;;;5019766;28;20029;-77
2022/12/14 12:46:44;;;;;;;14.85;8.57;;;15.10;31.80;;;;;;5038468;28;20024;-75
2022/12/14 12:49:14;;;;;;;15.13;9.60;;;15.10;32.20;;;;;;5037800;28;20424;-75
2022/12/14 12:51:53;;;;;;;11.20;7.43;;;15.00;32.50;;;;;;5039142;28;20063;-74
2022/12/14 12:54:41;;;;;;;11.88;6.63;;;15.10;32.60;;;;;;5038250;28;20029;-76
2022/12/14 12:57:10;;;;;;;12.90;8.07;;;15.30;33.40;;;;;;5039180;28;20486;-76
2022/12/14 12:59:58;;;;;;;11.65;7.45;;;15.50;32.00;;;;;;5043334;28;20069;-75
2022/12/14 13:02:34;;;;;;;12.45;8.60;;;15.50;31.30;;;;;;5033135;28;20479;-75
2022/12/14 13:05:10;;;;;;;16.17;9.68;;;15.40;31.80;;;;;;5050612;28;20025;-75
2022/12/14 13:07:42;;;;;;;11.07;7.15;;;15.40;34.00;;;;;;5048700;28;20108;-76
2022/12/14 13:10:33;;;;;;;10.70;7.15;;;15.60;33.40;;;;;;5049076;28;20395;-75
2022/12/14 13:13:03;;;;;;;11.50;7.03;;;15.60;34.30;;;;;;5032451;28;20048;-75
2022/12/14 13:15:38;;;;;;;9.75;5.97;;;15.60;32.60;;;;;;5047180;28;20110;-77